CYYZ/YYZ METAR and TAF weather

Enter ICAO airport designator
Station Type Date Time Source
CYYZ METAR 2017/01/22 18:00 UTC NOAA

CYYZ 221800Z 07006KT 5SM BR OVC005 04/03 A2970 RMK ST8 SLP064


Station Type Date Time Source
CYYZ Decoded METAR 2017/01/22 18:00 UTC NOAA

Toronto Pearson Int'L. Ont., Canada (CYYZ) 43-40N 079-38W 173M
Jan 22, 2017 - 01:00 PM EST / 2017.01.22 1800 UTC
Wind: from the ENE (070 degrees) at 7 MPH (6 KT):0
Visibility: 5 mile(s):0
Sky conditions: overcast
Weather: mist
Temperature: 39 F (4 C)
Dew Point: 37 F (3 C)
Relative Humidity: 93%
Pressure (altimeter): 29.7 in. Hg (1005 hPa)
ob: CYYZ 221800Z 07006KT 5SM BR OVC005 04/03 A2970 RMK ST8 SLP064
cycle: 18

Station Type Date Time Source
CYYZ TAF 2017/01/22 18:42 UTC NOAA

TAF TAF CYYZ 221738Z 2218/2324 08010KT 6SM BR OVC005
TEMPO 2218/2223 3SM BR PROB30 2221/2223 OVC003
FM222300 08012KT 11/2SM -DZ BR OVC002
TEMPO 2223/2301 2SM BR OVC004 PROB30 2309/2312 1/2SM FG VV002
FM231400 08015KT 3SM -DZ BR OVC003
BECMG 2314/2316 08015G25KT
FM231600 08015G25KT 4SM BR OVC005
FM231800 08015G25KT P6SM OVC008
FM232100 08015G25KT P6SM OVC015
FM232300 08015G25KT P6SM BKN025
RMK NXT FCST BY 222100Z


Example: see airport list